Time;durP1;ratioP1;P1;durP2;ratioP2;P2;SDS_P1;SDS_P2;PMS_P1;PMS_P2;Temp;Humidity;BMP_temperature;BMP_pressure;BME280_temperature;BME280_humidity;BME280_pressure;Samples;Min_cycle;Max_cycle;Signal;HPM_P1;HPM_P2
2023/04/08 00:01:59;;;;;;;13.60;10.60;;;;;;;;;;5101342;28;20485;-79
2023/04/08 00:04:26;;;;;;;14.77;9.40;;;;;;;;;;5101649;28;20455;-79
2023/04/08 00:06:55;;;;;;;16.60;9.87;;;;;;;;;;5101913;28;20497;-79
2023/04/08 00:09:22;;;;;;;14.30;8.93;;;;;;;;;;5101728;28;20476;-80
2023/04/08 00:11:49;;;;;;;22.60;10.90;;;;;;;;;;5102213;28;20471;-79
2023/04/08 00:14:16;;;;;;;12.23;9.20;;;;;;;;;;5102270;28;20472;-79
2023/04/08 00:16:43;;;;;;;11.50;9.13;;;;;;;;;;5101993;28;20443;-80
2023/04/08 00:19:11;;;;;;;14.17;10.30;;;;;;;;;;5101891;28;20473;-79
2023/04/08 00:21:38;;;;;;;16.10;10.50;;;;;;;;;;5102545;28;20462;-80
2023/04/08 00:24:07;;;;;;;17.93;11.03;;;;;;;;;;5102187;28;20438;-79
2023/04/08 00:26:34;;;;;;;13.07;9.50;;;;;;;;;;5102153;28;21019;-80
2023/04/08 00:29:01;;;;;;;15.20;10.50;;;;;;;;;;5102344;28;20546;-81
2023/04/08 00:31:28;;;;;;;13.17;9.10;;;;;;;;;;5101433;28;20963;-80
2023/04/08 00:33:55;;;;;;;15.40;10.90;;;;;;;;;;5102166;28;20458;-80
2023/04/08 00:36:22;;;;;;;14.50;10.77;;;;;;;;;;5102419;28;20443;-80
2023/04/08 00:38:49;;;;;;;13.50;9.17;;;;;;;;;;5101771;28;20446;-79
2023/04/08 00:41:18;;;;;;;14.20;10.00;;;;;;;;;;5101948;28;20847;-79
2023/04/08 00:43:45;;;;;;;14.57;9.07;;;;;;;;;;5101660;28;20470;-79
2023/04/08 00:46:12;;;;;;;13.17;9.60;;;;;;;;;;5101528;28;20494;-80
2023/04/08 00:48:40;;;;;;;14.40;9.40;;;;;;;;;;5101267;28;20451;-80
2023/04/08 00:51:07;;;;;;;14.53;10.20;;;;;;;;;;5101362;28;20546;-80
2023/04/08 00:53:34;;;;;;;13.87;9.70;;;;;;;;;;5100525;28;20455;-79
2023/04/08 00:56:01;;;;;;;13.87;10.23;;;;;;;;;;5101448;28;20423;-79
2023/04/08 00:58:30;;;;;;;16.00;10.37;;;;;;;;;;5101023;28;20537;-80
2023/04/08 01:01:01;;;;;;;16.03;10.53;;;;;;;;;;5100492;28;20454;-79
2023/04/08 01:03:35;;;;;;;14.73;11.10;;;;;;;;;;5099760;28;20454;-79
2023/04/08 01:06:07;;;;;;;12.40;10.17;;;;;;;;;;5100369;28;21024;-79
2023/04/08 01:08:37;;;;;;;19.80;11.73;;;;;;;;;;5100694;28;20435;-79
2023/04/08 01:11:06;;;;;;;14.20;10.00;;;;;;;;;;5100137;28;20474;-80
2023/04/08 01:13:38;;;;;;;11.43;9.33;;;;;;;;;;5100272;28;20442;-80
2023/04/08 01:16:05;;;;;;;14.77;10.83;;;;;;;;;;5100085;28;20427;-79
2023/04/08 01:18:32;;;;;;;15.67;10.90;;;;;;;;;;5100327;28;20446;-79
2023/04/08 01:21:00;;;;;;;16.83;10.20;;;;;;;;;;5099965;28;20896;-79
2023/04/08 01:23:33;;;;;;;15.70;10.23;;;;;;;;;;5099721;28;20458;-80
2023/04/08 01:26:01;;;;;;;15.20;11.13;;;;;;;;;;5100671;28;20450;-79
2023/04/08 01:28:30;;;;;;;13.23;10.33;;;;;;;;;;5099794;28;20944;-80
2023/04/08 01:30:57;;;;;;;17.00;12.07;;;;;;;;;;5099969;28;20453;-80
2023/04/08 01:33:25;;;;;;;15.60;11.77;;;;;;;;;;5100347;28;20457;-80
2023/04/08 01:35:53;;;;;;;14.70;10.37;;;;;;;;;;5096616;28;20462;-78
2023/04/08 01:38:21;;;;;;;15.83;10.73;;;;;;;;;;5098837;28;20464;-78
2023/04/08 01:40:48;;;;;;;13.53;10.30;;;;;;;;;;5095895;28;20454;-77
2023/04/08 01:43:17;;;;;;;15.03;11.50;;;;;;;;;;5093915;28;20450;-77
2023/04/08 01:45:45;;;;;;;14.80;10.83;;;;;;;;;;5093616;28;20458;-77
2023/04/08 01:48:13;;;;;;;16.83;11.03;;;;;;;;;;5094039;28;20490;-76
2023/04/08 01:50:41;;;;;;;20.93;11.90;;;;;;;;;;5093976;28;20454;-76
2023/04/08 01:53:09;;;;;;;17.37;11.93;;;;;;;;;;5094382;28;20457;-77
2023/04/08 01:55:37;;;;;;;18.27;10.77;;;;;;;;;;5093346;28;20469;-76
2023/04/08 01:58:06;;;;;;;16.93;12.07;;;;;;;;;;5093852;28;20963;-76
2023/04/08 02:00:34;;;;;;;20.00;12.30;;;;;;;;;;5093679;28;20455;-77
2023/04/08 02:03:03;;;;;;;28.87;12.37;;;;;;;;;;5093690;28;20474;-77
2023/04/08 02:05:30;;;;;;;15.47;10.73;;;;;;;;;;5093488;28;20818;-76
2023/04/08 02:07:57;;;;;;;15.97;11.53;;;;;;;;;;5093663;28;20482;-76
2023/04/08 02:10:24;;;;;;;21.93;12.10;;;;;;;;;;5093396;28;20454;-76
2023/04/08 02:12:51;;;;;;;15.10;11.30;;;;;;;;;;5093433;28;20474;-76
2023/04/08 02:15:18;;;;;;;17.73;12.27;;;;;;;;;;5093250;28;20454;-76
2023/04/08 02:17:49;;;;;;;16.37;11.43;;;;;;;;;;5093422;28;20453;-77
2023/04/08 02:20:17;;;;;;;18.17;11.93;;;;;;;;;;5093528;28;20921;-77
2023/04/08 02:22:48;;;;;;;21.10;12.67;;;;;;;;;;5093569;28;20470;-78
2023/04/08 02:25:16;;;;;;;16.00;11.50;;;;;;;;;;5093389;28;20928;-78
2023/04/08 02:27:44;;;;;;;18.90;12.50;;;;;;;;;;5093242;28;20486;-78
2023/04/08 02:30:12;;;;;;;16.87;11.83;;;;;;;;;;5093334;28;20455;-77
2023/04/08 02:32:39;;;;;;;15.90;11.53;;;;;;;;;;5093203;28;20482;-77
2023/04/08 02:35:09;;;;;;;16.50;11.03;;;;;;;;;;5093420;28;20454;-78
2023/04/08 02:37:37;;;;;;;20.50;11.83;;;;;;;;;;5093562;28;20439;-77
2023/04/08 02:40:05;;;;;;;22.57;12.90;;;;;;;;;;5093250;28;20447;-78
2023/04/08 02:42:32;;;;;;;20.17;11.27;;;;;;;;;;5093004;28;20570;-77
2023/04/08 02:44:59;;;;;;;15.00;11.50;;;;;;;;;;5092854;28;20469;-76
2023/04/08 02:47:26;;;;;;;18.37;11.80;;;;;;;;;;5092962;28;20490;-77
2023/04/08 02:49:54;;;;;;;17.50;12.13;;;;;;;;;;5093375;28;20450;-77
2023/04/08 02:52:22;;;;;;;17.90;12.50;;;;;;;;;;5092979;28;20520;-77
2023/04/08 02:54:49;;;;;;;19.50;12.00;;;;;;;;;;5092767;28;20537;-77
2023/04/08 02:57:17;;;;;;;22.40;12.57;;;;;;;;;;5095958;28;20824;-77
2023/04/08 02:59:44;;;;;;;20.43;11.90;;;;;;;;;;5097382;28;20450;-77
2023/04/08 03:02:11;;;;;;;16.50;11.60;;;;;;;;;;5097475;28;20565;-77
2023/04/08 03:04:38;;;;;;;24.00;13.23;;;;;;;;;;5096937;28;20454;-77
2023/04/08 03:07:05;;;;;;;18.80;12.13;;;;;;;;;;5097190;28;20482;-77
2023/04/08 03:09:34;;;;;;;15.97;10.00;;;;;;;;;;5096914;28;20511;-77
2023/04/08 03:12:01;;;;;;;20.60;12.23;;;;;;;;;;5100626;28;20715;-78
2023/04/08 03:14:28;;;;;;;17.90;11.93;;;;;;;;;;5099670;28;20515;-80
2023/04/08 03:16:55;;;;;;;15.40;11.23;;;;;;;;;;5101033;28;20442;-78
2023/04/08 03:19:22;;;;;;;19.70;12.17;;;;;;;;;;5100030;28;20782;-78
2023/04/08 03:21:49;;;;;;;20.37;12.73;;;;;;;;;;5099977;28;20478;-78
2023/04/08 03:24:17;;;;;;;16.73;12.17;;;;;;;;;;5100734;28;20462;-79
2023/04/08 03:26:45;;;;;;;15.27;10.20;;;;;;;;;;5101469;28;20850;-79
2023/04/08 03:29:12;;;;;;;14.60;11.07;;;;;;;;;;5100178;28;20831;-80
2023/04/08 03:31:40;;;;;;;17.77;12.30;;;;;;;;;;5099633;28;20479;-79
2023/04/08 03:34:07;;;;;;;16.17;11.60;;;;;;;;;;5098693;28;20825;-78
2023/04/08 03:36:34;;;;;;;16.83;11.33;;;;;;;;;;5099019;28;20462;-78
2023/04/08 03:39:02;;;;;;;14.00;10.90;;;;;;;;;;5099375;28;20825;-78
2023/04/08 03:41:29;;;;;;;17.30;10.70;;;;;;;;;;5099759;28;20470;-79
2023/04/08 03:43:58;;;;;;;19.03;12.67;;;;;;;;;;5100489;28;20469;-79
2023/04/08 03:46:25;;;;;;;14.77;11.00;;;;;;;;;;5099941;28;20454;-79
2023/04/08 03:48:52;;;;;;;16.57;10.97;;;;;;;;;;5098620;28;20486;-79
2023/04/08 03:51:20;;;;;;;19.37;12.03;;;;;;;;;;5100984;28;20834;-78
2023/04/08 03:53:48;;;;;;;16.60;11.73;;;;;;;;;;5100219;28;20632;-78
2023/04/08 03:56:15;;;;;;;18.90;13.40;;;;;;;;;;5099376;28;20442;-78
2023/04/08 03:58:42;;;;;;;17.40;12.20;;;;;;;;;;5101078;28;20856;-79
2023/04/08 04:01:10;;;;;;;20.30;13.00;;;;;;;;;;5099885;28;20516;-79
2023/04/08 04:03:38;;;;;;;19.43;12.97;;;;;;;;;;5099854;28;20892;-78
2023/04/08 04:06:05;;;;;;;21.87;12.03;;;;;;;;;;5099900;28;20455;-78
2023/04/08 04:08:32;;;;;;;19.20;12.50;;;;;;;;;;5097182;28;20486;-78
2023/04/08 04:11:00;;;;;;;17.60;10.90;;;;;;;;;;5097339;28;20457;-78
2023/04/08 04:13:27;;;;;;;20.87;12.80;;;;;;;;;;5096980;28;20458;-78
2023/04/08 04:15:54;;;;;;;17.47;12.23;;;;;;;;;;5098398;28;20490;-79
2023/04/08 04:18:23;;;;;;;19.87;12.23;;;;;;;;;;5098145;28;20458;-79
2023/04/08 04:20:50;;;;;;;17.90;13.70;;;;;;;;;;5098842;28;20439;-78
2023/04/08 04:23:17;;;;;;;19.47;12.00;;;;;;;;;;5101038;28;20462;-78
2023/04/08 04:25:44;;;;;;;16.30;12.10;;;;;;;;;;5101651;28;20455;-79
2023/04/08 04:28:12;;;;;;;21.23;13.40;;;;;;;;;;5101503;28;20561;-79
2023/04/08 04:30:39;;;;;;;19.33;13.27;;;;;;;;;;5099394;28;20541;-78
2023/04/08 04:33:07;;;;;;;15.93;12.07;;;;;;;;;;5101336;28;20991;-79
2023/04/08 04:35:35;;;;;;;16.07;11.63;;;;;;;;;;5101251;28;20478;-80
2023/04/08 04:38:04;;;;;;;17.67;12.50;;;;;;;;;;5101938;28;20453;-80
2023/04/08 04:40:31;;;;;;;15.57;12.20;;;;;;;;;;5101816;28;20810;-78
2023/04/08 04:42:58;;;;;;;17.83;13.50;;;;;;;;;;5095675;28;20822;-77
2023/04/08 04:45:26;;;;;;;14.17;10.97;;;;;;;;;;5095013;28;20553;-78
2023/04/08 04:47:53;;;;;;;19.27;13.20;;;;;;;;;;5095202;28;20513;-78
2023/04/08 04:50:20;;;;;;;17.20;12.10;;;;;;;;;;5096996;28;20463;-79
2023/04/08 04:52:49;;;;;;;20.60;12.90;;;;;;;;;;5101738;28;20482;-80
2023/04/08 04:55:16;;;;;;;23.13;11.87;;;;;;;;;;5100833;28;20534;-80
2023/04/08 04:57:45;;;;;;;17.80;12.57;;;;;;;;;;5100879;28;20467;-80
2023/04/08 05:00:12;;;;;;;21.83;13.10;;;;;;;;;;5101622;28;20828;-80
2023/04/08 05:02:39;;;;;;;14.47;11.27;;;;;;;;;;5100207;28;20538;-80
2023/04/08 05:05:07;;;;;;;18.93;13.60;;;;;;;;;;5100809;28;20974;-80
2023/04/08 05:07:36;;;;;;;13.47;10.80;;;;;;;;;;5101216;28;20498;-80
2023/04/08 05:10:05;;;;;;;17.93;12.03;;;;;;;;;;5121534;28;20442;-80
2023/04/08 05:12:32;;;;;;;25.30;13.40;;;;;;;;;;5121000;28;20485;-80
2023/04/08 05:15:01;;;;;;;19.13;12.73;;;;;;;;;;5119435;28;20461;-80
2023/04/08 05:17:28;;;;;;;20.23;12.47;;;;;;;;;;5119386;28;20446;-80
2023/04/08 05:19:55;;;;;;;22.60;13.87;;;;;;;;;;5118371;28;20450;-79
2023/04/08 05:22:22;;;;;;;15.23;10.90;;;;;;;;;;5118889;28;20473;-79
2023/04/08 05:24:50;;;;;;;18.70;13.07;;;;;;;;;;5119114;28;20450;-79
2023/04/08 05:27:20;;;;;;;16.87;11.10;;;;;;;;;;5119248;28;20947;-79
2023/04/08 05:29:47;;;;;;;20.47;13.00;;;;;;;;;;5119107;28;20479;-80
2023/04/08 05:32:15;;;;;;;18.27;11.93;;;;;;;;;;5119654;28;20477;-79
2023/04/08 05:34:42;;;;;;;16.57;11.40;;;;;;;;;;5119783;27;20462;-80
2023/04/08 05:37:10;;;;;;;16.80;11.97;;;;;;;;;;5119727;28;20458;-79
2023/04/08 05:39:37;;;;;;;16.27;11.70;;;;;;;;;;5119308;28;20450;-79
2023/04/08 05:42:04;;;;;;;25.13;14.43;;;;;;;;;;5118830;28;20989;-80
2023/04/08 05:44:33;;;;;;;19.60;12.27;;;;;;;;;;5118166;28;20462;-79
2023/04/08 05:47:00;;;;;;;15.17;11.33;;;;;;;;;;5119293;28;20961;-79
2023/04/08 05:49:27;;;;;;;14.70;11.23;;;;;;;;;;5118985;28;20493;-79
2023/04/08 05:51:54;;;;;;;17.60;12.27;;;;;;;;;;5118587;28;20469;-79
2023/04/08 05:54:22;;;;;;;13.53;11.17;;;;;;;;;;5114853;28;20449;-79
2023/04/08 05:56:49;;;;;;;18.87;10.80;;;;;;;;;;5114520;28;20832;-79
2023/04/08 05:59:16;;;;;;;16.83;12.00;;;;;;;;;;5114171;28;20461;-79
2023/04/08 06:01:44;;;;;;;15.30;10.57;;;;;;;;;;5114302;28;20480;-78
2023/04/08 06:04:12;;;;;;;18.63;12.90;;;;;;;;;;5113267;28;20476;-79
2023/04/08 06:06:39;;;;;;;19.33;12.00;;;;;;;;;;5113664;28;20450;-79
2023/04/08 06:09:06;;;;;;;13.77;11.77;;;;;;;;;;5113919;28;20511;-79
2023/04/08 06:11:33;;;;;;;16.87;11.47;;;;;;;;;;5104846;28;20843;-79
2023/04/08 06:14:00;;;;;;;16.53;12.60;;;;;;;;;;5093366;28;20451;-79
2023/04/08 06:16:28;;;;;;;26.73;11.10;;;;;;;;;;5094512;28;20442;-79
2023/04/08 06:18:56;;;;;;;16.00;11.40;;;;;;;;;;5093800;28;20447;-79
2023/04/08 06:21:23;;;;;;;14.90;10.90;;;;;;;;;;5093250;28;20474;-79
2023/04/08 06:23:50;;;;;;;23.40;12.47;;;;;;;;;;5093327;28;20458;-79
2023/04/08 06:26:18;;;;;;;16.37;11.77;;;;;;;;;;5094607;28;20465;-78
2023/04/08 06:28:45;;;;;;;19.63;13.87;;;;;;;;;;5099433;28;20482;-78
2023/04/08 06:31:12;;;;;;;14.60;10.70;;;;;;;;;;5098702;28;20466;-78
2023/04/08 06:33:39;;;;;;;16.93;10.53;;;;;;;;;;5099669;28;20451;-80
2023/04/08 06:36:08;;;;;;;17.27;13.03;;;;;;;;;;5102191;28;20482;-80
2023/04/08 06:38:35;;;;;;;19.30;11.93;;;;;;;;;;5101808;28;20939;-80
2023/04/08 06:41:03;;;;;;;13.27;10.57;;;;;;;;;;5102252;28;20507;-80
2023/04/08 06:43:30;;;;;;;17.70;10.23;;;;;;;;;;5101407;28;20454;-80
2023/04/08 06:45:57;;;;;;;15.90;10.67;;;;;;;;;;5102130;28;20451;-80
2023/04/08 06:48:27;;;;;;;17.87;11.40;;;;;;;;;;5101935;28;20489;-80
2023/04/08 06:50:54;;;;;;;13.03;10.33;;;;;;;;;;5102888;28;20462;-80
2023/04/08 06:53:24;;;;;;;16.40;11.90;;;;;;;;;;5102405;28;20451;-80
2023/04/08 06:55:51;;;;;;;14.43;10.73;;;;;;;;;;5102502;28;20457;-80
2023/04/08 06:58:19;;;;;;;15.63;11.27;;;;;;;;;;5102339;28;20893;-81
2023/04/08 07:00:46;;;;;;;15.50;11.17;;;;;;;;;;5103310;28;20455;-81
2023/04/08 07:03:13;;;;;;;14.00;11.17;;;;;;;;;;5104331;28;20454;-80
2023/04/08 07:05:41;;;;;;;18.60;13.57;;;;;;;;;;5102759;28;20834;-80
2023/04/08 07:08:08;;;;;;;16.60;11.63;;;;;;;;;;5098389;28;20487;-81
2023/04/08 07:10:36;;;;;;;20.30;14.00;;;;;;;;;;5099085;28;20938;-80
2023/04/08 07:13:04;;;;;;;16.90;12.30;;;;;;;;;;5100513;28;20988;-80
2023/04/08 07:15:31;;;;;;;19.27;13.00;;;;;;;;;;5102313;28;20450;-80
2023/04/08 07:17:58;;;;;;;21.27;15.50;;;;;;;;;;5103553;28;20450;-80
2023/04/08 07:20:25;;;;;;;19.93;14.07;;;;;;;;;;5100988;28;20443;-79
2023/04/08 07:22:53;;;;;;;18.47;12.60;;;;;;;;;;5099901;28;20470;-80
2023/04/08 07:25:20;;;;;;;20.27;14.20;;;;;;;;;;5101559;28;20454;-81
2023/04/08 07:27:49;;;;;;;24.40;15.30;;;;;;;;;;5102203;28;20935;-79
2023/04/08 07:30:16;;;;;;;19.80;14.10;;;;;;;;;;5102473;28;20447;-79
2023/04/08 07:32:43;;;;;;;24.73;13.80;;;;;;;;;;5103565;28;20470;-81
2023/04/08 07:35:10;;;;;;;19.97;13.27;;;;;;;;;;5107084;28;20447;-79
2023/04/08 07:37:37;;;;;;;19.70;15.03;;;;;;;;;;5109363;28;20457;-79
2023/04/08 07:40:05;;;;;;;21.70;14.27;;;;;;;;;;5109779;28;20434;-79
2023/04/08 07:42:32;;;;;;;19.33;14.77;;;;;;;;;;5104484;28;20498;-79
2023/04/08 07:45:00;;;;;;;17.10;12.57;;;;;;;;;;5106961;28;20490;-79
2023/04/08 07:47:27;;;;;;;20.80;14.20;;;;;;;;;;5104812;28;20970;-79
2023/04/08 07:49:56;;;;;;;18.13;12.93;;;;;;;;;;5107193;28;20494;-80
2023/04/08 07:52:23;;;;;;;22.10;15.60;;;;;;;;;;5105894;28;21018;-78
2023/04/08 07:54:50;;;;;;;21.73;14.73;;;;;;;;;;5104177;28;20474;-78
2023/04/08 07:57:17;;;;;;;24.97;16.63;;;;;;;;;;5104859;28;20816;-79
2023/04/08 07:59:44;;;;;;;20.60;14.23;;;;;;;;;;5103416;28;20450;-79
2023/04/08 08:02:13;;;;;;;21.20;15.30;;;;;;;;;;5103701;28;20473;-78
2023/04/08 08:04:40;;;;;;;19.77;14.53;;;;;;;;;;5103648;28;20454;-79
2023/04/08 08:07:07;;;;;;;19.67;13.70;;;;;;;;;;5102113;28;20454;-79
2023/04/08 08:09:34;;;;;;;26.63;16.40;;;;;;;;;;5100429;28;20478;-78
2023/04/08 08:12:01;;;;;;;18.50;14.10;;;;;;;;;;5102898;28;20481;-78
2023/04/08 08:14:29;;;;;;;21.47;16.17;;;;;;;;;;5101462;28;20457;-78
2023/04/08 08:16:56;;;;;;;21.37;15.27;;;;;;;;;;5101095;28;20490;-78
2023/04/08 08:19:25;;;;;;;34.23;20.27;;;;;;;;;;5100804;28;20893;-78
2023/04/08 08:21:52;;;;;;;25.73;18.20;;;;;;;;;;5099952;28;20467;-79
2023/04/08 08:24:19;;;;;;;23.73;16.10;;;;;;;;;;5098834;28;20461;-78
2023/04/08 08:26:48;;;;;;;24.70;16.53;;;;;;;;;;5099456;28;20454;-78
2023/04/08 08:29:15;;;;;;;22.43;15.37;;;;;;;;;;5098350;28;20482;-78
2023/04/08 08:31:42;;;;;;;30.43;18.20;;;;;;;;;;5099278;28;20892;-78
2023/04/08 08:34:09;;;;;;;24.07;17.17;;;;;;;;;;5101611;28;20459;-78
2023/04/08 08:36:38;;;;;;;20.10;14.63;;;;;;;;;;5100783;28;20451;-78
2023/04/08 08:39:05;;;;;;;25.63;16.17;;;;;;;;;;5098423;28;20950;-77
2023/04/08 08:41:35;;;;;;;21.10;14.73;;;;;;;;;;5095304;28;20504;-77
2023/04/08 08:44:03;;;;;;;21.60;14.17;;;;;;;;;;5093712;28;20506;-75
2023/04/08 08:46:30;;;;;;;21.60;15.97;;;;;;;;;;5095349;28;20508;-76
2023/04/08 08:48:57;;;;;;;18.20;15.07;;;;;;;;;;5096871;28;20483;-75
2023/04/08 08:51:25;;;;;;;23.80;15.10;;;;;;;;;;5095235;28;20846;-75
2023/04/08 08:53:53;;;;;;;26.63;19.50;;;;;;;;;;5094619;28;20469;-75
2023/04/08 08:56:21;;;;;;;23.70;16.47;;;;;;;;;;5094854;28;20477;-75
2023/04/08 08:58:48;;;;;;;22.93;15.50;;;;;;;;;;5095156;28;20459;-75
2023/04/08 09:01:32;;;;;;;17.87;14.20;;;;;;;;;;5094931;28;20474;-75
2023/04/08 09:04:09;;;;;;;23.93;15.53;;;;;;;;;;5094760;28;20454;-75
2023/04/08 09:06:36;;;;;;;29.63;21.27;;;;;;;;;;5094901;28;20451;-77
2023/04/08 09:09:09;;;;;;;22.70;16.43;;;;;;;;;;5094830;28;20486;-75
2023/04/08 09:11:36;;;;;;;22.77;16.50;;;;;;;;;;5094217;28;20474;-76
2023/04/08 09:14:05;;;;;;;19.77;14.93;;;;;;;;;;5093643;28;20938;-77
2023/04/08 09:16:32;;;;;;;19.40;14.80;;;;;;;;;;5094105;28;20525;-76
2023/04/08 09:19:08;;;;;;;20.63;15.47;;;;;;;;;;5094102;28;20940;-77
2023/04/08 09:21:35;;;;;;;17.20;14.40;;;;;;;;;;5093587;28;20476;-76
2023/04/08 09:24:03;;;;;;;24.50;14.97;;;;;;;;;;5093771;28;20454;-76
2023/04/08 09:26:31;;;;;;;21.17;15.47;;;;;;;;;;5093297;28;20450;-77
2023/04/08 09:28:59;;;;;;;21.13;16.17;;;;;;;;;;5093427;28;20491;-76
2023/04/08 09:31:27;;;;;;;19.23;13.43;;;;;;;;;;5093447;28;20532;-76
2023/04/08 09:33:55;;;;;;;21.43;15.80;;;;;;;;;;5093635;28;20952;-77
2023/04/08 09:36:22;;;;;;;20.30;14.73;;;;;;;;;;5093483;28;20892;-76
2023/04/08 09:38:50;;;;;;;18.67;14.60;;;;;;;;;;5093491;28;20465;-77
2023/04/08 09:41:19;;;;;;;21.53;15.23;;;;;;;;;;5093828;28;20474;-76
2023/04/08 09:43:51;;;;;;;18.80;14.63;;;;;;;;;;5093274;28;20463;-77
2023/04/08 09:46:18;;;;;;;19.93;14.53;;;;;;;;;;5093324;28;20542;-77
2023/04/08 09:48:50;;;;;;;20.63;14.40;;;;;;;;;;5093819;28;20490;-77
2023/04/08 09:51:18;;;;;;;22.47;15.70;;;;;;;;;;5093701;28;20469;-77
2023/04/08 09:53:48;;;;;;;16.00;12.70;;;;;;;;;;5094549;28;20866;-77
2023/04/08 09:56:18;;;;;;;21.73;13.97;;;;;;;;;;5094862;28;20442;-78
2023/04/08 09:58:49;;;;;;;21.60;14.77;;;;;;;;;;5094425;28;20453;-78
2023/04/08 10:01:20;;;;;;;19.13;14.63;;;;;;;;;;5094083;28;20466;-77
2023/04/08 10:03:49;;;;;;;24.30;16.33;;;;;;;;;;5095737;28;20830;-78
2023/04/08 10:06:17;;;;;;;23.33;17.10;;;;;;;;;;5094015;28;20538;-77
2023/04/08 10:08:45;;;;;;;19.00;13.50;;;;;;;;;;5094245;28;20566;-77
2023/04/08 10:11:12;;;;;;;18.37;13.83;;;;;;;;;;5094464;28;20470;-78
2023/04/08 10:13:40;;;;;;;18.07;13.43;;;;;;;;;;5094581;28;20824;-78
2023/04/08 10:16:20;;;;;;;20.93;14.43;;;;;;;;;;5094560;28;20837;-79
2023/04/08 10:18:48;;;;;;;18.70;13.73;;;;;;;;;;5094584;28;20441;-78
2023/04/08 10:21:42;;;;;;;23.47;15.30;;;;;;;;;;5096297;28;20510;-79
2023/04/08 10:24:09;;;;;;;21.17;16.17;;;;;;;;;;5104289;28;20541;-79
2023/04/08 10:26:37;;;;;;;20.97;15.43;;;;;;;;;;5103286;28;20494;-78
2023/04/08 10:29:23;;;;;;;22.87;16.70;;;;;;;;;;5094568;28;20519;-79
2023/04/08 10:31:52;;;;;;;27.07;17.43;;;;;;;;;;5097438;28;20479;-78
2023/04/08 10:34:20;;;;;;;26.30;17.30;;;;;;;;;;5096725;28;20504;-78
2023/04/08 10:36:47;;;;;;;22.53;15.90;;;;;;;;;;5095815;28;20504;-76
2023/04/08 10:39:15;;;;;;;23.93;16.17;;;;;;;;;;5093312;28;20822;-76
2023/04/08 10:41:43;;;;;;;25.10;16.03;;;;;;;;;;5093166;28;20479;-75
2023/04/08 10:44:16;;;;;;;20.07;16.23;;;;;;;;;;5092585;28;20553;-75
2023/04/08 10:46:44;;;;;;;21.83;14.57;;;;;;;;;;5093378;28;20445;-75
2023/04/08 10:49:13;;;;;;;24.80;16.17;;;;;;;;;;5093490;28;20486;-79
2023/04/08 10:51:41;;;;;;;26.13;17.90;;;;;;;;;;5093235;28;20481;-75
2023/04/08 10:54:09;;;;;;;24.53;15.53;;;;;;;;;;5092887;28;20439;-76
2023/04/08 10:56:37;;;;;;;21.20;16.10;;;;;;;;;;5093655;28;20439;-77
2023/04/08 10:59:05;;;;;;;24.33;17.60;;;;;;;;;;5094167;28;20504;-77
2023/04/08 11:01:40;;;;;;;23.23;16.03;;;;;;;;;;5093381;28;20479;-77
2023/04/08 11:04:12;;;;;;;22.57;16.93;;;;;;;;;;5093302;28;20466;-77
2023/04/08 11:06:42;;;;;;;26.13;16.83;;;;;;;;;;5093734;28;20482;-76
2023/04/08 11:09:10;;;;;;;29.77;19.80;;;;;;;;;;5093030;28;20490;-78
2023/04/08 11:11:37;;;;;;;22.60;16.70;;;;;;;;;;5093575;28;20478;-78
2023/04/08 11:14:05;;;;;;;21.33;16.10;;;;;;;;;;5093360;28;20818;-77
2023/04/08 11:16:33;;;;;;;27.43;16.50;;;;;;;;;;5094193;28;20458;-79
2023/04/08 11:19:02;;;;;;;22.97;16.60;;;;;;;;;;5097478;28;20947;-79
2023/04/08 11:21:31;;;;;;;23.67;15.27;;;;;;;;;;5096804;28;20459;-79
2023/04/08 11:24:00;;;;;;;21.93;16.33;;;;;;;;;;5097414;28;20831;-79
2023/04/08 11:26:27;;;;;;;20.53;16.40;;;;;;;;;;5096074;28;20489;-79
2023/04/08 11:28:55;;;;;;;18.97;14.87;;;;;;;;;;5097094;28;20465;-79
2023/04/08 11:31:23;;;;;;;19.60;15.13;;;;;;;;;;5099701;28;20474;-78
2023/04/08 11:33:51;;;;;;;21.03;16.10;;;;;;;;;;5096831;28;20454;-77
2023/04/08 11:36:20;;;;;;;23.10;16.20;;;;;;;;;;5098003;28;20485;-78
2023/04/08 11:38:47;;;;;;;23.97;16.73;;;;;;;;;;5097611;28;20479;-78
2023/04/08 11:41:16;;;;;;;21.73;15.67;;;;;;;;;;5097983;28;20470;-78
2023/04/08 11:43:56;;;;;;;19.10;15.53;;;;;;;;;;5097115;28;20515;-77
2023/04/08 11:46:24;;;;;;;20.13;14.70;;;;;;;;;;5097926;28;20458;-78
2023/04/08 11:48:58;;;;;;;24.10;15.00;;;;;;;;;;5097651;28;20458;-78
2023/04/08 11:51:26;;;;;;;19.20;15.20;;;;;;;;;;5097016;28;20494;-79
2023/04/08 11:53:54;;;;;;;18.43;14.53;;;;;;;;;;5097872;28;20918;-78
2023/04/08 11:56:23;;;;;;;18.23;13.73;;;;;;;;;;5097192;28;20443;-78
2023/04/08 11:58:50;;;;;;;19.17;13.77;;;;;;;;;;5098328;28;20447;-79
2023/04/08 12:01:18;;;;;;;20.20;14.73;;;;;;;;;;5098386;28;20503;-79
2023/04/08 12:03:55;;;;;;;19.53;14.70;;;;;;;;;;5097032;28;20542;-77
2023/04/08 12:06:23;;;;;;;27.00;21.70;;;;;;;;;;5096932;28;20443;-77
2023/04/08 12:08:50;;;;;;;16.23;11.30;;;;;;;;;;5096178;28;20454;-77
2023/04/08 12:11:17;;;;;;;21.03;15.17;;;;;;;;;;5096332;28;20498;-78
2023/04/08 12:13:46;;;;;;;18.80;13.83;;;;;;;;;;5096437;28;20450;-79
2023/04/08 12:16:13;;;;;;;20.77;14.07;;;;;;;;;;5096468;28;20520;-78
2023/04/08 12:18:40;;;;;;;20.13;15.00;;;;;;;;;;5096841;28;20451;-77
2023/04/08 12:21:07;;;;;;;19.17;12.87;;;;;;;;;;5096967;28;20524;-78
2023/04/08 12:23:34;;;;;;;19.80;13.37;;;;;;;;;;5097789;28;20498;-78
2023/04/08 12:26:02;;;;;;;17.70;13.57;;;;;;;;;;5097485;28;20454;-79
2023/04/08 12:28:30;;;;;;;16.90;13.50;;;;;;;;;;5097292;28;20452;-78
2023/04/08 12:30:58;;;;;;;17.73;14.37;;;;;;;;;;5097855;28;20918;-78
2023/04/08 12:33:25;;;;;;;17.80;14.30;;;;;;;;;;5098752;28;20443;-78
2023/04/08 12:35:53;;;;;;;20.30;13.47;;;;;;;;;;5097647;28;20465;-79
2023/04/08 12:38:20;;;;;;;18.57;12.33;;;;;;;;;;5095900;28;20458;-78
2023/04/08 12:40:47;;;;;;;24.40;15.37;;;;;;;;;;5096165;28;20889;-78
2023/04/08 12:43:14;;;;;;;18.27;14.03;;;;;;;;;;5095937;28;20466;-77
2023/04/08 12:45:42;;;;;;;27.07;19.40;;;;;;;;;;5096004;28;20451;-77
2023/04/08 12:48:10;;;;;;;42.53;29.30;;;;;;;;;;5096361;28;20463;-78
2023/04/08 12:50:38;;;;;;;18.40;15.77;;;;;;;;;;5096410;28;20490;-78
2023/04/08 12:53:05;;;;;;;28.40;20.20;;;;;;;;;;5095442;28;20481;-77
2023/04/08 12:55:33;;;;;;;27.33;20.30;;;;;;;;;;5095602;28;20549;-78
2023/04/08 12:58:00;;;;;;;21.40;17.60;;;;;;;;;;5095765;28;20447;-78
2023/04/08 13:00:27;;;;;;;33.20;19.63;;;;;;;;;;5095663;28;20451;-77
2023/04/08 13:02:54;;;;;;;24.97;16.83;;;;;;;;;;5095383;28;20482;-77
2023/04/08 13:05:23;;;;;;;27.60;18.67;;;;;;;;;;5095084;28;20467;-77
2023/04/08 13:07:50;;;;;;;28.80;19.03;;;;;;;;;;5095305;28;20459;-78
2023/04/08 13:10:17;;;;;;;24.67;17.60;;;;;;;;;;5095161;28;20509;-78
2023/04/08 13:12:44;;;;;;;25.73;16.70;;;;;;;;;;5094962;28;20470;-78
2023/04/08 13:15:12;;;;;;;22.70;16.30;;;;;;;;;;5095252;28;20451;-78
2023/04/08 13:17:39;;;;;;;21.73;17.00;;;;;;;;;;5095105;28;20457;-78
2023/04/08 13:20:08;;;;;;;25.47;16.90;;;;;;;;;;5095371;28;20795;-79
2023/04/08 13:22:36;;;;;;;23.83;17.00;;;;;;;;;;5095253;28;20524;-77
2023/04/08 13:25:05;;;;;;;24.27;17.97;;;;;;;;;;5095091;28;20477;-78
2023/04/08 13:27:32;;;;;;;24.67;17.10;;;;;;;;;;5095079;28;20528;-77
2023/04/08 13:29:59;;;;;;;22.57;16.77;;;;;;;;;;5095142;28;20854;-78
2023/04/08 13:32:26;;;;;;;22.90;17.47;;;;;;;;;;5094945;28;20477;-77
2023/04/08 13:34:53;;;;;;;25.70;19.67;;;;;;;;;;5094714;28;20458;-77
2023/04/08 13:37:21;;;;;;;22.00;16.60;;;;;;;;;;5094284;28;20451;-76
2023/04/08 13:39:49;;;;;;;26.50;18.10;;;;;;;;;;5093635;28;20435;-76
2023/04/08 13:42:16;;;;;;;23.47;18.37;;;;;;;;;;5094041;28;20475;-76
2023/04/08 13:44:44;;;;;;;30.93;20.20;;;;;;;;;;5093952;28;20470;-76
2023/04/08 13:47:11;;;;;;;29.07;19.17;;;;;;;;;;5094204;28;20504;-76
2023/04/08 13:49:38;;;;;;;27.17;18.70;;;;;;;;;;5094134;28;20966;-76
2023/04/08 13:52:06;;;;;;;25.70;18.13;;;;;;;;;;5093951;28;20482;-76
2023/04/08 13:54:33;;;;;;;27.07;16.53;;;;;;;;;;5093435;28;20982;-76
2023/04/08 13:57:03;;;;;;;24.70;17.37;;;;;;;;;;5093845;28;20462;-76
2023/04/08 13:59:30;;;;;;;24.53;16.40;;;;;;;;;;5093803;28;20475;-76
2023/04/08 14:01:57;;;;;;;28.87;18.40;;;;;;;;;;5093706;28;20514;-76
2023/04/08 14:04:24;;;;;;;25.13;17.50;;;;;;;;;;5093633;28;20454;-77
2023/04/08 14:06:52;;;;;;;19.27;15.27;;;;;;;;;;5094231;28;20454;-77
2023/04/08 14:09:19;;;;;;;24.13;16.50;;;;;;;;;;5096209;28;20451;-78
2023/04/08 14:11:46;;;;;;;30.23;17.53;;;;;;;;;;5096487;28;20498;-77
2023/04/08 14:14:15;;;;;;;24.30;15.97;;;;;;;;;;5095629;28;20481;-78
2023/04/08 14:16:42;;;;;;;20.60;15.43;;;;;;;;;;5096906;28;20458;-78
2023/04/08 14:19:10;;;;;;;23.60;17.30;;;;;;;;;;5114321;28;20449;-78
2023/04/08 14:21:37;;;;;;;22.13;15.43;;;;;;;;;;5114478;28;20486;-78
2023/04/08 14:24:05;;;;;;;24.13;17.60;;;;;;;;;;5115023;28;20458;-77